sensor_id;sensor_type;location;lat;lon;timestamp;pressure;altitude;pressure_sealevel;temperature;humidity
77517;BME280;68414;53.946;27.634;2024-03-02T00:00:00;99736.578125;;;4.810000;75.295898
77517;BME280;68414;53.946;27.634;2024-03-02T00:01:00;99736.625000;;;4.860000;75.381836
77517;BME280;68414;53.946;27.634;2024-03-02T00:02:00;99736.945312;;;4.890000;75.388672
77517;BME280;68414;53.946;27.634;2024-03-02T00:03:00;99740.968750;;;4.920000;75.042969
77517;BME280;68414;53.946;27.634;2024-03-02T00:04:00;99736.453125;;;4.920000;75.022461
77517;BME280;68414;53.946;27.634;2024-03-02T00:05:00;99728.468750;;;4.920000;75.131836
77517;BME280;68414;53.946;27.634;2024-03-02T00:06:00;99727.906250;;;4.900000;74.909180
77517;BME280;68414;53.946;27.634;2024-03-02T00:07:00;99739.851562;;;4.880000;75.297852
77517;BME280;68414;53.946;27.634;2024-03-02T00:08:00;99727.906250;;;4.900000;75.061523
77517;BME280;68414;53.946;27.634;2024-03-02T00:09:00;99729.203125;;;4.880000;75.166016
77517;BME280;68414;53.946;27.634;2024-03-02T00:10:00;99735.328125;;;4.880000;75.266602
77517;BME280;68414;53.946;27.634;2024-03-02T00:11:01;99721.406250;;;4.810000;75.287109
77517;BME280;68414;53.946;27.634;2024-03-02T00:12:00;99725.375000;;;4.790000;75.522461
77517;BME280;68414;53.946;27.634;2024-03-02T00:13:01;99723.921875;;;4.710000;75.017578
77517;BME280;68414;53.946;27.634;2024-03-02T00:14:00;99719.890625;;;4.680000;76.182617
77517;BME280;68414;53.946;27.634;2024-03-02T00:15:00;99727.640625;;;4.700000;75.956055
77517;BME280;68414;53.946;27.634;2024-03-02T00:16:00;99720.625000;;;4.640000;75.846680
77517;BME280;68414;53.946;27.634;2024-03-02T00:17:00;99718.523438;;;4.660000;76.374023
77517;BME280;68414;53.946;27.634;2024-03-02T00:18:01;99721.500000;;;4.690000;75.825195
77517;BME280;68414;53.946;27.634;2024-03-02T00:19:01;99725.453125;;;4.670000;76.148438
77517;BME280;68414;53.946;27.634;2024-03-02T00:20:00;99723.843750;;;4.660000;76.089844
77517;BME280;68414;53.946;27.634;2024-03-02T00:21:00;99719.007812;;;4.630000;76.172852
77517;BME280;68414;53.946;27.634;2024-03-02T00:22:00;99710.539062;;;4.660000;76.112305
77517;BME280;68414;53.946;27.634;2024-03-02T00:23:02;99715.046875;;;4.650000;75.958984
77517;BME280;68414;53.946;27.634;2024-03-02T00:24:00;99713.125000;;;4.610000;76.267578
77517;BME280;68414;53.946;27.634;2024-03-02T00:25:00;99705.453125;;;4.640000;76.263672
77517;BME280;68414;53.946;27.634;2024-03-02T00:26:00;99712.953125;;;4.670000;76.049805
77517;BME280;68414;53.946;27.634;2024-03-02T00:27:00;99707.875000;;;4.660000;76.068359
77517;BME280;68414;53.946;27.634;2024-03-02T00:28:00;99709.734375;;;4.650000;75.750977
77517;BME280;68414;53.946;27.634;2024-03-02T00:29:00;99713.765625;;;4.680000;75.940430
77517;BME280;68414;53.946;27.634;2024-03-02T00:30:00;99712.148438;;;4.670000;75.820312
77517;BME280;68414;53.946;27.634;2024-03-02T00:32:00;99714.570312;;;4.680000;75.592773
77517;BME280;68414;53.946;27.634;2024-03-02T00:33:00;99721.671875;;;4.630000;75.473633
77517;BME280;68414;53.946;27.634;2024-03-02T00:34:00;99722.476562;;;4.630000;76.053711
77517;BME280;68414;53.946;27.634;2024-03-02T00:35:00;99724.328125;;;4.630000;75.703125
77517;BME280;68414;53.946;27.634;2024-03-02T00:36:00;99714.734375;;;4.620000;75.810547
77517;BME280;68414;53.946;27.634;2024-03-02T00:37:00;99721.351562;;;4.590000;76.035156
77517;BME280;68414;53.946;27.634;2024-03-02T00:39:01;99704.015625;;;4.570000;75.988281
77517;BME280;68414;53.946;27.634;2024-03-02T00:40:00;99709.890625;;;4.590000;76.056641
77517;BME280;68414;53.946;27.634;2024-03-02T00:42:00;99711.507812;;;4.600000;76.058594
77517;BME280;68414;53.946;27.634;2024-03-02T00:43:00;99708.609375;;;4.610000;75.633789
77517;BME280;68414;53.946;27.634;2024-03-02T00:45:00;99712.640625;;;4.640000;75.988281
77517;BME280;68414;53.946;27.634;2024-03-02T00:46:00;99711.023438;;;4.630000;75.823242
77517;BME280;68414;53.946;27.634;2024-03-02T00:46:59;99709.406250;;;4.620000;75.723633
77517;BME280;68414;53.946;27.634;2024-03-02T00:48:00;99708.359375;;;4.630000;75.341797
77517;BME280;68414;53.946;27.634;2024-03-02T00:49:00;99708.609375;;;4.610000;75.743164
77517;BME280;68414;53.946;27.634;2024-03-02T00:49:59;99701.421875;;;4.620000;75.953125
77517;BME280;68414;53.946;27.634;2024-03-02T00:51:02;99697.156250;;;4.610000;75.776367
77517;BME280;68414;53.946;27.634;2024-03-02T00:51:59;99696.593750;;;4.590000;75.685547
77517;BME280;68414;53.946;27.634;2024-03-02T00:53:01;99697.390625;;;4.590000;75.740234
77517;BME280;68414;53.946;27.634;2024-03-02T00:54:05;99701.343750;;;4.570000;75.944336
77517;BME280;68414;53.946;27.634;2024-03-02T00:54:59;99692.796875;;;4.550000;76.029297
77517;BME280;68414;53.946;27.634;2024-03-02T00:56:00;99696.468750;;;4.490000;75.939453
77517;BME280;68414;53.946;27.634;2024-03-02T00:57:00;99699.609375;;;4.460000;75.989258
77517;BME280;68414;53.946;27.634;2024-03-02T00:58:00;99690.257812;;;4.430000;76.235352
77517;BME280;68414;53.946;27.634;2024-03-02T00:59:00;99701.390625;;;4.400000;76.394531
77517;BME280;68414;53.946;27.634;2024-03-02T01:00:00;99703.320312;;;4.450000;76.587891
77517;BME280;68414;53.946;27.634;2024-03-02T01:01:00;99701.218750;;;4.470000;76.406250
77517;BME280;68414;53.946;27.634;2024-03-02T01:01:59;99697.804688;;;4.510000;76.293945
77517;BME280;68414;53.946;27.634;2024-03-02T01:03:00;99706.671875;;;4.570000;76.064453
77517;BME280;68414;53.946;27.634;2024-03-02T01:04:00;99708.843750;;;4.600000;75.632812
77517;BME280;68414;53.946;27.634;2024-03-02T01:05:02;99707.234375;;;4.590000;75.750977
77517;BME280;68414;53.946;27.634;2024-03-02T01:06:01;99715.218750;;;4.590000;75.205078
77517;BME280;68414;53.946;27.634;2024-03-02T01:07:00;99702.640625;;;4.540000;75.240234
77517;BME280;68414;53.946;27.634;2024-03-02T01:08:00;99711.671875;;;4.530000;75.488281
77517;BME280;68414;53.946;27.634;2024-03-02T01:09:00;99708.765625;;;4.550000;75.919922
77517;BME280;68414;53.946;27.634;2024-03-02T01:10:00;99706.671875;;;4.570000;75.824219
77517;BME280;68414;53.946;27.634;2024-03-02T01:11:00;99709.093750;;;4.580000;76.055664
77517;BME280;68414;53.946;27.634;2024-03-02T01:12:00;99707.796875;;;4.610000;75.645508
77517;BME280;68414;53.946;27.634;2024-03-02T01:13:00;99709.734375;;;4.650000;75.609375
77517;BME280;68414;53.946;27.634;2024-03-02T01:14:01;99712.953125;;;4.670000;75.481445
77517;BME280;68414;53.946;27.634;2024-03-02T01:15:00;99716.343750;;;4.630000;75.036133
77517;BME280;68414;53.946;27.634;2024-03-02T01:15:59;99717.468750;;;4.670000;75.131836
77517;BME280;68414;53.946;27.634;2024-03-02T01:17:00;99719.648438;;;4.700000;75.082031
77517;BME280;68414;53.946;27.634;2024-03-02T01:17:59;99714.078125;;;4.710000;75.161133
77517;BME280;68414;53.946;27.634;2024-03-02T01:18:59;99722.390625;;;4.750000;75.025391
77517;BME280;68414;53.946;27.634;2024-03-02T01:19:59;99725.609375;;;4.770000;74.821289
77517;BME280;68414;53.946;27.634;2024-03-02T01:20:59;99724.640625;;;4.830000;74.556641
77517;BME280;68414;53.946;27.634;2024-03-02T01:22:00;99720.359375;;;4.820000;74.666992
77517;BME280;68414;53.946;27.634;2024-03-02T01:23:00;99719.593750;;;4.870000;74.740234
77517;BME280;68414;53.946;27.634;2024-03-02T01:24:01;99724.679688;;;4.880000;74.806641
77517;BME280;68414;53.946;27.634;2024-03-02T01:25:00;99723.062500;;;4.870000;73.941406
77517;BME280;68414;53.946;27.634;2024-03-02T01:26:00;99722.015625;;;4.880000;74.446289
77517;BME280;68414;53.946;27.634;2024-03-02T01:27:00;99718.265625;;;4.840000;74.472656
77517;BME280;68414;53.946;27.634;2024-03-02T01:28:01;99716.648438;;;4.830000;74.381836
77517;BME280;68414;53.946;27.634;2024-03-02T01:28:59;99714.234375;;;4.820000;74.774414
77517;BME280;68414;53.946;27.634;2024-03-02T01:30:00;99715.031250;;;4.820000;74.524414
77517;BME280;68414;53.946;27.634;2024-03-02T01:31:00;99709.710938;;;4.820000;74.623047
77517;BME280;68414;53.946;27.634;2024-03-02T01:32:00;99719.359375;;;4.880000;74.391602
77517;BME280;68414;53.946;27.634;2024-03-02T01:33:00;99712.734375;;;4.910000;74.253906
77517;BME280;68414;53.946;27.634;2024-03-02T01:34:00;99724.679688;;;4.880000;74.194336
77517;BME280;68414;53.946;27.634;2024-03-02T01:35:00;99708.664062;;;4.830000;74.196289
77517;BME280;68414;53.946;27.634;2024-03-02T01:36:00;99712.421875;;;4.870000;74.532227
77517;BME280;68414;53.946;27.634;2024-03-02T01:37:00;99702.890625;;;4.910000;74.297852
77517;BME280;68414;53.946;27.634;2024-03-02T01:38:00;99706.921875;;;4.940000;74.040039
77517;BME280;68414;53.946;27.634;2024-03-02T01:39:00;99709.335938;;;4.950000;73.922852
77517;BME280;68414;53.946;27.634;2024-03-02T01:40:00;99710.703125;;;4.980000;74.209961
77517;BME280;68414;53.946;27.634;2024-03-02T01:40:59;99711.265625;;;5.000000;74.138672
77517;BME280;68414;53.946;27.634;2024-03-02T01:41:59;99704.640625;;;5.020000;73.913086
77517;BME280;68414;53.946;27.634;2024-03-02T01:42:59;99711.015625;;;5.010000;73.758789
77517;BME280;68414;53.946;27.634;2024-03-02T01:44:00;99704.570312;;;4.970000;73.444336
77517;BME280;68414;53.946;27.634;2024-03-02T01:44:59;99704.812500;;;4.960000;73.506836
77517;BME280;68414;53.946;27.634;2024-03-02T01:45:59;99704.812500;;;4.960000;73.704102
77517;BME280;68414;53.946;27.634;2024-03-02T01:46:59;99703.687500;;;4.920000;73.675781
77517;BME280;68414;53.946;27.634;2024-03-02T01:47:59;99694.343750;;;4.890000;74.086914
77517;BME280;68414;53.946;27.634;2024-03-02T01:48:59;99694.023438;;;4.860000;73.806641
77517;BME280;68414;53.946;27.634;2024-03-02T01:50:01;99697.765625;;;4.850000;73.959961
77517;BME280;68414;53.946;27.634;2024-03-02T01:51:00;99699.062500;;;4.820000;73.956055
77517;BME280;68414;53.946;27.634;2024-03-02T01:52:00;99691.875000;;;4.830000;73.933594
77517;BME280;68414;53.946;27.634;2024-03-02T01:53:00;99683.085938;;;4.820000;74.042969
77517;BME280;68414;53.946;27.634;2024-03-02T01:54:00;99697.625000;;;4.750000;74.302734
77517;BME280;68414;53.946;27.634;2024-03-02T01:55:00;99691.984375;;;4.710000;74.918945
77517;BME280;68414;53.946;27.634;2024-03-02T01:56:00;99693.031250;;;4.700000;74.753906
77517;BME280;68414;53.946;27.634;2024-03-02T01:57:01;99692.781250;;;4.710000;74.756836
77517;BME280;68414;53.946;27.634;2024-03-02T01:58:01;99696.250000;;;4.720000;74.548828
77517;BME280;68414;53.946;27.634;2024-03-02T01:59:02;99704.234375;;;4.720000;74.603516
77517;BME280;68414;53.946;27.634;2024-03-02T02:00:00;99697.789062;;;4.680000;74.486328
77517;BME280;68414;53.946;27.634;2024-03-02T02:00:59;99693.515625;;;4.670000;74.749023
77517;BME280;68414;53.946;27.634;2024-03-02T02:02:00;99694.562500;;;4.660000;74.735352
77517;BME280;68414;53.946;27.634;2024-03-02T02:02:59;99691.023438;;;4.600000;74.649414
77517;BME280;68414;53.946;27.634;2024-03-02T02:03:59;99687.312500;;;4.610000;75.022461
77517;BME280;68414;53.946;27.634;2024-03-02T02:04:59;99688.687500;;;4.640000;74.808594
77517;BME280;68414;53.946;27.634;2024-03-02T02:05:59;99689.968750;;;4.610000;74.333008
77517;BME280;68414;53.946;27.634;2024-03-02T02:06:59;99689.406250;;;4.590000;74.920898
77517;BME280;68414;53.946;27.634;2024-03-02T02:08:00;99686.500000;;;4.610000;74.858398
77517;BME280;68414;53.946;27.634;2024-03-02T02:09:00;99683.281250;;;4.590000;74.668945
77517;BME280;68414;53.946;27.634;2024-03-02T02:09:59;99684.890625;;;4.600000;74.944336
77517;BME280;68414;53.946;27.634;2024-03-02T02:10:59;99685.218750;;;4.630000;74.830078
77517;BME280;68414;53.946;27.634;2024-03-02T02:11:59;99682.312500;;;4.650000;74.735352
77517;BME280;68414;53.946;27.634;2024-03-02T02:13:01;99689.171875;;;4.610000;74.387695
77517;BME280;68414;53.946;27.634;2024-03-02T02:13:59;99684.656250;;;4.610000;74.618164
77517;BME280;68414;53.946;27.634;2024-03-02T02:14:59;99683.765625;;;4.560000;74.684570
77517;BME280;68414;53.946;27.634;2024-03-02T02:16:59;99672.640625;;;4.590000;74.647461
77517;BME280;68414;53.946;27.634;2024-03-02T02:18:00;99673.203125;;;4.610000;74.913086
77517;BME280;68414;53.946;27.634;2024-03-02T02:19:00;99679.570312;;;4.600000;74.681641
77517;BME280;68414;53.946;27.634;2024-03-02T02:19:59;99664.093750;;;4.570000;74.425781
77517;BME280;68414;53.946;27.634;2024-03-02T02:21:00;99667.312500;;;4.590000;74.778320
77517;BME280;68414;53.946;27.634;2024-03-02T02:21:59;99664.093750;;;4.570000;74.556641
77517;BME280;68414;53.946;27.634;2024-03-02T02:23:00;99658.203125;;;4.550000;74.126953
77517;BME280;68414;53.946;27.634;2024-03-02T02:24:00;99666.390625;;;4.480000;74.705078
77517;BME280;68414;53.946;27.634;2024-03-02T02:24:59;99659.625000;;;4.410000;74.974609
77517;BME280;68414;53.946;27.634;2024-03-02T02:25:59;99655.593750;;;4.380000;75.419922
77517;BME280;68414;53.946;27.634;2024-03-02T02:26:59;99655.031250;;;4.360000;75.316406
77517;BME280;68414;53.946;27.634;2024-03-02T02:27:59;99651.882812;;;4.390000;75.333984
77517;BME280;68414;53.946;27.634;2024-03-02T02:28:59;99658.734375;;;4.350000;75.327148
77517;BME280;68414;53.946;27.634;2024-03-02T02:29:59;99657.929688;;;4.340000;75.511719
77517;BME280;68414;53.946;27.634;2024-03-02T02:30:59;99654.140625;;;4.300000;75.274414
77517;BME280;68414;53.946;27.634;2024-03-02T02:32:00;99656.718750;;;4.250000;75.779297
77517;BME280;68414;53.946;27.634;2024-03-02T02:33:01;99652.531250;;;4.290000;75.721680
77517;BME280;68414;53.946;27.634;2024-03-02T02:34:01;99658.421875;;;4.310000;75.593750
77517;BME280;68414;53.946;27.634;2024-03-02T02:35:01;99649.625000;;;4.310000;75.483398
77517;BME280;68414;53.946;27.634;2024-03-02T02:35:59;99659.140625;;;4.270000;75.499023
77517;BME280;68414;53.946;27.634;2024-03-02T02:36:59;99655.187500;;;4.290000;75.700195
77517;BME280;68414;53.946;27.634;2024-03-02T02:37:59;99653.015625;;;4.260000;75.442383
77517;BME280;68414;53.946;27.634;2024-03-02T02:40:00;99652.773438;;;4.280000;75.522461
77517;BME280;68414;53.946;27.634;2024-03-02T02:40:59;99651.484375;;;4.300000;75.426758
77517;BME280;68414;53.946;27.634;2024-03-02T02:41:59;99645.843750;;;4.270000;75.324219
77517;BME280;68414;53.946;27.634;2024-03-02T02:42:59;99652.937500;;;4.210000;75.443359
77517;BME280;68414;53.946;27.634;2024-03-02T02:44:01;99650.031250;;;4.230000;75.873047
77517;BME280;68414;53.946;27.634;2024-03-02T02:44:59;99653.015625;;;4.260000;75.748047
77517;BME280;68414;53.946;27.634;2024-03-02T02:46:01;99663.734375;;;4.310000;75.626953
77517;BME280;68414;53.946;27.634;2024-03-02T02:46:59;99658.171875;;;4.330000;75.376953
77517;BME280;68414;53.946;27.634;2024-03-02T02:48:00;99654.468750;;;4.340000;75.465820
77517;BME280;68414;53.946;27.634;2024-03-02T02:48:59;99654.703125;;;4.320000;75.071289
77517;BME280;68414;53.946;27.634;2024-03-02T02:49:59;99642.375000;;;4.260000;75.180664
77517;BME280;68414;53.946;27.634;2024-03-02T02:50:59;99640.203125;;;4.230000;75.479492
77517;BME280;68414;53.946;27.634;2024-03-02T02:51:59;99646.085938;;;4.250000;75.768555
77517;BME280;68414;53.946;27.634;2024-03-02T02:52:59;99648.179688;;;4.230000;75.632812
77517;BME280;68414;53.946;27.634;2024-03-02T02:54:00;99641.250000;;;4.220000;75.632812
77517;BME280;68414;53.946;27.634;2024-03-02T02:54:59;99653.500000;;;4.230000;75.632812
77517;BME280;68414;53.946;27.634;2024-03-02T02:55:59;99653.500000;;;4.230000;75.436523
77517;BME280;68414;53.946;27.634;2024-03-02T02:56:59;99655.671875;;;4.260000;75.769531
77517;BME280;68414;53.946;27.634;2024-03-02T02:57:59;99656.484375;;;4.270000;75.520508
77517;BME280;68414;53.946;27.634;2024-03-02T02:58:59;99652.531250;;;4.290000;75.219727
77517;BME280;68414;53.946;27.634;2024-03-02T03:00:01;99659.140625;;;4.270000;74.952148
77517;BME280;68414;53.946;27.634;2024-03-02T03:01:01;99656.718750;;;4.250000;75.222656
77517;BME280;68414;53.946;27.634;2024-03-02T03:02:00;99646.570312;;;4.220000;75.184570
77517;BME280;68414;53.946;27.634;2024-03-02T03:02:59;99662.281250;;;4.240000;75.568359
77517;BME280;68414;53.946;27.634;2024-03-02T03:04:00;99656.640625;;;4.200000;75.125977
77517;BME280;68414;53.946;27.634;2024-03-02T03:04:59;99666.234375;;;4.210000;75.541992
77517;BME280;68414;53.946;27.634;2024-03-02T03:05:59;99665.429688;;;4.210000;75.345703
77517;BME280;68414;53.946;27.634;2024-03-02T03:06:59;99660.109375;;;4.210000;75.149414
77517;BME280;68414;53.946;27.634;2024-03-02T03:08:00;99657.687500;;;4.190000;75.277344
77517;BME280;68414;53.946;27.634;2024-03-02T03:08:59;99662.046875;;;4.250000;75.233398
77517;BME280;68414;53.946;27.634;2024-03-02T03:10:00;99662.843750;;;4.260000;75.113281
77517;BME280;68414;53.946;27.634;2024-03-02T03:10:59;99658.335938;;;4.260000;74.765625
77517;BME280;68414;53.946;27.634;2024-03-02T03:11:59;99661.484375;;;4.230000;74.977539
77517;BME280;68414;53.946;27.634;2024-03-02T03:12:59;99668.890625;;;4.210000;74.952148
77517;BME280;68414;53.946;27.634;2024-03-02T03:14:00;99668.093750;;;4.210000;74.843750
77517;BME280;68414;53.946;27.634;2024-03-02T03:15:01;99667.710938;;;4.120000;75.178711
77517;BME280;68414;53.946;27.634;2024-03-02T03:15:59;99660.296875;;;4.140000;75.160156
77517;BME280;68414;53.946;27.634;2024-03-02T03:16:59;99669.328125;;;4.130000;75.156250
77517;BME280;68414;53.946;27.634;2024-03-02T03:17:59;99666.578125;;;4.080000;75.301758
77517;BME280;68414;53.946;27.634;2024-03-02T03:18:59;99671.898438;;;4.080000;75.399414
77517;BME280;68414;53.946;27.634;2024-03-02T03:20:01;99671.093750;;;4.080000;75.236328
77517;BME280;68414;53.946;27.634;2024-03-02T03:20:59;99663.835938;;;4.030000;75.215820
77517;BME280;68414;53.946;27.634;2024-03-02T03:21:59;99651.585938;;;4.020000;75.388672
77517;BME280;68414;53.946;27.634;2024-03-02T03:23:00;99652.062500;;;3.990000;75.601562
77517;BME280;68414;53.946;27.634;2024-03-02T03:23:59;99661.093750;;;3.980000;75.425781
77517;BME280;68414;53.946;27.634;2024-03-02T03:24:59;99662.703125;;;3.990000;75.263672
77517;BME280;68414;53.946;27.634;2024-03-02T03:26:01;99655.773438;;;3.980000;75.284180
77517;BME280;68414;53.946;27.634;2024-03-02T03:26:59;99659.000000;;;4.000000;75.243164
77517;BME280;68414;53.946;27.634;2024-03-02T03:27:59;99652.546875;;;3.960000;75.148438
77517;BME280;68414;53.946;27.634;2024-03-02T03:28:59;99652.875000;;;3.990000;75.494141
77517;BME280;68414;53.946;27.634;2024-03-02T03:29:59;99652.062500;;;3.990000;75.373047
77517;BME280;68414;53.946;27.634;2024-03-02T03:30:59;99659.476562;;;3.970000;75.260742
77517;BME280;68414;53.946;27.634;2024-03-02T03:31:59;99655.453125;;;3.940000;75.277344
77517;BME280;68414;53.946;27.634;2024-03-02T03:32:59;99648.757812;;;3.920000;75.403320
77517;BME280;68414;53.946;27.634;2024-03-02T03:33:59;99652.546875;;;3.960000;75.235352
77517;BME280;68414;53.946;27.634;2024-03-02T03:34:59;99648.843750;;;3.970000;75.260742
77517;BME280;68414;53.946;27.634;2024-03-02T03:36:00;99649.890625;;;3.960000;74.875000
77517;BME280;68414;53.946;27.634;2024-03-02T03:36:59;99642.875000;;;3.900000;75.029297
77517;BME280;68414;53.946;27.634;2024-03-02T03:37:59;99650.281250;;;3.880000;75.244141
77517;BME280;68414;53.946;27.634;2024-03-02T03:38:59;99649.484375;;;3.870000;75.548828
77517;BME280;68414;53.946;27.634;2024-03-02T03:40:00;99652.375000;;;3.860000;75.348633
77517;BME280;68414;53.946;27.634;2024-03-02T03:40:59;99651.328125;;;3.870000;75.133789
77517;BME280;68414;53.946;27.634;2024-03-02T03:41:59;99641.117188;;;3.790000;75.412109
77517;BME280;68414;53.946;27.634;2024-03-02T03:42:59;99652.703125;;;3.730000;75.751953
77517;BME280;68414;53.946;27.634;2024-03-02T03:43:59;99646.250000;;;3.680000;75.710938
77517;BME280;68414;53.946;27.634;2024-03-02T03:44:59;99649.960938;;;3.670000;75.940430
77517;BME280;68414;53.946;27.634;2024-03-02T03:46:01;99655.750000;;;3.640000;75.977539
77517;BME280;68414;53.946;27.634;2024-03-02T03:46:59;99654.609375;;;3.600000;76.559570
77517;BME280;68414;53.946;27.634;2024-03-02T03:47:59;99657.835938;;;3.620000;76.431641
77517;BME280;68414;53.946;27.634;2024-03-02T03:49:02;99660.968750;;;3.590000;76.360352
77517;BME280;68414;53.946;27.634;2024-03-02T03:49:59;99665.234375;;;3.600000;76.384766
77517;BME280;68414;53.946;27.634;2024-03-02T03:51:00;99654.609375;;;3.600000;76.374023
77517;BME280;68414;53.946;27.634;2024-03-02T03:51:59;99658.406250;;;3.640000;76.293945
77517;BME280;68414;53.946;27.634;2024-03-02T03:52:59;99656.554688;;;3.650000;76.338867
77517;BME280;68414;53.946;27.634;2024-03-02T03:53:59;99661.062500;;;3.640000;76.315430
77517;BME280;68414;53.946;27.634;2024-03-02T03:54:59;99655.750000;;;3.640000;76.250000
77517;BME280;68414;53.946;27.634;2024-03-02T03:55:59;99657.359375;;;3.650000;76.153320
77517;BME280;68414;53.946;27.634;2024-03-02T03:56:59;99661.156250;;;3.690000;75.987305
77517;BME280;68414;53.946;27.634;2024-03-02T03:58:00;99663.812500;;;3.690000;75.964844
77517;BME280;68414;53.946;27.634;2024-03-02T03:58:59;99660.679688;;;3.730000;75.926758
77517;BME280;68414;53.946;27.634;2024-03-02T03:59:59;99665.664062;;;3.690000;75.843750
77517;BME280;68414;53.946;27.634;2024-03-02T04:01:01;99665.421875;;;3.700000;75.901367
77517;BME280;68414;53.946;27.634;2024-03-02T04:01:59;99670.648438;;;3.650000;76.077148
77517;BME280;68414;53.946;27.634;2024-03-02T04:02:59;99665.234375;;;3.600000;76.363281
77517;BME280;68414;53.946;27.634;2024-03-02T04:03:59;99658.406250;;;3.640000;76.293945
77517;BME280;68414;53.946;27.634;2024-03-02T04:04:59;99659.921875;;;3.600000;75.873047
77517;BME280;68414;53.946;27.634;2024-03-02T04:05:59;99661.062500;;;3.640000;76.227539
77517;BME280;68414;53.946;27.634;2024-03-02T04:06:59;99657.359375;;;3.650000;76.284180
77517;BME280;68414;53.946;27.634;2024-03-02T04:08:00;99665.335938;;;3.650000;75.924805
77517;BME280;68414;53.946;27.634;2024-03-02T04:08:59;99666.710938;;;3.680000;76.168945
77517;BME280;68414;53.946;27.634;2024-03-02T04:09:59;99651.570312;;;3.680000;75.809570
77517;BME280;68414;53.946;27.634;2024-03-02T04:11:00;99654.468750;;;3.670000;76.014648
77517;BME280;68414;53.946;27.634;2024-03-02T04:11:59;99663.812500;;;3.690000;75.921875
77517;BME280;68414;53.946;27.634;2024-03-02T04:12:59;99660.828125;;;3.660000;75.880859
77517;BME280;68414;53.946;27.634;2024-03-02T04:14:00;99664.289062;;;3.660000;75.566406
77517;BME280;68414;53.946;27.634;2024-03-02T04:14:59;99661.062500;;;3.640000;75.857422
77517;BME280;68414;53.946;27.634;2024-03-02T04:16:01;99658.406250;;;3.640000;76.097656
77517;BME280;68414;53.946;27.634;2024-03-02T04:17:00;99652.523438;;;3.620000;75.417969
77517;BME280;68414;53.946;27.634;2024-03-02T04:17:59;99664.765625;;;3.630000;75.855469
77517;BME280;68414;53.946;27.634;2024-03-02T04:19:00;99658.968750;;;3.660000;75.686523
77517;BME280;68414;53.946;27.634;2024-03-02T04:19:59;99657.453125;;;3.700000;75.694336
77517;BME280;68414;53.946;27.634;2024-03-02T04:21:01;99656.312500;;;3.660000;75.609375
77517;BME280;68414;53.946;27.634;2024-03-02T04:21:59;99655.273438;;;3.670000;76.005859
77517;BME280;68414;53.946;27.634;2024-03-02T04:22:59;99653.656250;;;3.660000;75.794922
77517;BME280;68414;53.946;27.634;2024-03-02T04:23:59;99656.312500;;;3.660000;75.849609
77517;BME280;68414;53.946;27.634;2024-03-02T04:25:01;99648.585938;;;3.650000;75.902344
77517;BME280;68414;53.946;27.634;2024-03-02T04:25:59;99654.609375;;;3.600000;75.578125
77517;BME280;68414;53.946;27.634;2024-03-02T04:26:59;99656.554688;;;3.650000;75.880859
77517;BME280;68414;53.946;27.634;2024-03-02T04:27:59;99656.554688;;;3.650000;76.022461
77517;BME280;68414;53.946;27.634;2024-03-02T04:28:59;99662.109375;;;3.630000;75.724609
77517;BME280;68414;53.946;27.634;2024-03-02T04:29:59;99663.718750;;;3.640000;75.922852
77517;BME280;68414;53.946;27.634;2024-03-02T04:30:59;99656.312500;;;3.660000;75.904297
77517;BME280;68414;53.946;27.634;2024-03-02T04:31:59;99662.203125;;;3.680000;75.733398
77517;BME280;68414;53.946;27.634;2024-03-02T04:32:59;99667.515625;;;3.680000;75.373047
77517;BME280;68414;53.946;27.634;2024-03-02T04:33:59;99655.273438;;;3.670000;75.558594
77517;BME280;68414;53.946;27.634;2024-03-02T04:34:59;99662.671875;;;3.650000;75.117188
77517;BME280;68414;53.946;27.634;2024-03-02T04:35:59;99656.796875;;;3.630000;75.506836
77517;BME280;68414;53.946;27.634;2024-03-02T04:36:59;99654.703125;;;3.650000;75.521484
77517;BME280;68414;53.946;27.634;2024-03-02T04:37:59;99658.968750;;;3.660000;75.511719
77517;BME280;68414;53.946;27.634;2024-03-02T04:38:59;99655.562500;;;3.540000;75.142578